sensor_id;sensor_type;location;lat;lon;timestamp;temperature;humidity
1381;DHT22;684;48.342;10.096;2023-07-29T00:01:18;18.10;40.80
1381;DHT22;684;48.342;10.096;2023-07-29T00:03:44;18.10;40.90
1381;DHT22;684;48.342;10.096;2023-07-29T00:06:11;18.00;41.00
1381;DHT22;684;48.342;10.096;2023-07-29T00:08:38;18.00;41.10
1381;DHT22;684;48.342;10.096;2023-07-29T00:11:06;18.00;41.30
1381;DHT22;684;48.342;10.096;2023-07-29T00:13:33;18.00;41.40
1381;DHT22;684;48.342;10.096;2023-07-29T00:15:59;18.00;41.70
1381;DHT22;684;48.342;10.096;2023-07-29T00:18:26;18.00;42.10
1381;DHT22;684;48.342;10.096;2023-07-29T00:20:53;18.00;42.40
1381;DHT22;684;48.342;10.096;2023-07-29T00:23:20;18.00;42.30
1381;DHT22;684;48.342;10.096;2023-07-29T00:25:47;18.00;42.20
1381;DHT22;684;48.342;10.096;2023-07-29T00:28:15;18.00;42.00
1381;DHT22;684;48.342;10.096;2023-07-29T00:30:42;18.00;41.90
1381;DHT22;684;48.342;10.096;2023-07-29T00:33:08;18.00;41.70
1381;DHT22;684;48.342;10.096;2023-07-29T00:35:35;17.90;41.90
1381;DHT22;684;48.342;10.096;2023-07-29T00:38:02;17.90;41.80
1381;DHT22;684;48.342;10.096;2023-07-29T00:40:29;17.90;41.80
1381;DHT22;684;48.342;10.096;2023-07-29T00:42:57;17.80;41.60
1381;DHT22;684;48.342;10.096;2023-07-29T00:45:26;17.80;41.70
1381;DHT22;684;48.342;10.096;2023-07-29T00:47:53;17.80;41.70
1381;DHT22;684;48.342;10.096;2023-07-29T00:50:20;17.70;41.60
1381;DHT22;684;48.342;10.096;2023-07-29T00:52:48;17.70;41.60
1381;DHT22;684;48.342;10.096;2023-07-29T00:55:16;17.70;41.40
1381;DHT22;684;48.342;10.096;2023-07-29T00:57:43;17.70;41.70
1381;DHT22;684;48.342;10.096;2023-07-29T01:00:14;17.70;41.50
1381;DHT22;684;48.342;10.096;2023-07-29T01:02:43;17.60;41.80
1381;DHT22;684;48.342;10.096;2023-07-29T01:05:13;17.60;42.20
1381;DHT22;684;48.342;10.096;2023-07-29T01:07:47;17.60;42.30
1381;DHT22;684;48.342;10.096;2023-07-29T01:10:20;17.60;42.60
1381;DHT22;684;48.342;10.096;2023-07-29T01:12:54;17.70;42.70
1381;DHT22;684;48.342;10.096;2023-07-29T01:15:24;17.70;42.80
1381;DHT22;684;48.342;10.096;2023-07-29T01:17:55;17.70;43.10
1381;DHT22;684;48.342;10.096;2023-07-29T01:20:24;17.60;43.20
1381;DHT22;684;48.342;10.096;2023-07-29T01:22:51;17.60;43.40
1381;DHT22;684;48.342;10.096;2023-07-29T01:25:19;17.70;43.40
1381;DHT22;684;48.342;10.096;2023-07-29T01:27:48;17.70;43.50
1381;DHT22;684;48.342;10.096;2023-07-29T01:30:17;17.70;43.40
1381;DHT22;684;48.342;10.096;2023-07-29T01:32:50;17.70;43.40
1381;DHT22;684;48.342;10.096;2023-07-29T01:35:22;17.70;43.70
1381;DHT22;684;48.342;10.096;2023-07-29T01:37:52;17.70;43.60
1381;DHT22;684;48.342;10.096;2023-07-29T01:40:23;17.70;43.50
1381;DHT22;684;48.342;10.096;2023-07-29T01:42:53;17.80;43.30
1381;DHT22;684;48.342;10.096;2023-07-29T01:45:23;17.80;43.30
1381;DHT22;684;48.342;10.096;2023-07-29T01:47:50;17.80;43.10
1381;DHT22;684;48.342;10.096;2023-07-29T01:50:16;17.80;43.10
1381;DHT22;684;48.342;10.096;2023-07-29T01:52:43;17.80;43.10
1381;DHT22;684;48.342;10.096;2023-07-29T01:55:10;17.80;43.10
1381;DHT22;684;48.342;10.096;2023-07-29T01:57:38;17.90;43.30
1381;DHT22;684;48.342;10.096;2023-07-29T02:00:06;17.90;43.30
1381;DHT22;684;48.342;10.096;2023-07-29T02:02:34;18.00;43.10
1381;DHT22;684;48.342;10.096;2023-07-29T02:05:00;18.00;43.30
1381;DHT22;684;48.342;10.096;2023-07-29T02:07:27;18.00;43.10
1381;DHT22;684;48.342;10.096;2023-07-29T02:09:54;18.00;43.30
1381;DHT22;684;48.342;10.096;2023-07-29T02:12:21;18.10;43.10
1381;DHT22;684;48.342;10.096;2023-07-29T02:14:49;18.10;43.20
1381;DHT22;684;48.342;10.096;2023-07-29T02:17:16;18.10;43.30
1381;DHT22;684;48.342;10.096;2023-07-29T02:19:43;18.10;43.20
1381;DHT22;684;48.342;10.096;2023-07-29T02:22:12;18.10;43.10
1381;DHT22;684;48.342;10.096;2023-07-29T02:24:39;18.10;43.30
1381;DHT22;684;48.342;10.096;2023-07-29T02:27:06;18.10;43.20
1381;DHT22;684;48.342;10.096;2023-07-29T02:29:33;18.10;43.20
1381;DHT22;684;48.342;10.096;2023-07-29T02:32:01;18.10;43.10
1381;DHT22;684;48.342;10.096;2023-07-29T02:34:28;18.10;43.10
1381;DHT22;684;48.342;10.096;2023-07-29T02:36:55;18.10;42.90
1381;DHT22;684;48.342;10.096;2023-07-29T02:39:22;18.10;42.90
1381;DHT22;684;48.342;10.096;2023-07-29T02:41:49;18.00;42.80
1381;DHT22;684;48.342;10.096;2023-07-29T02:44:16;18.00;42.80
1381;DHT22;684;48.342;10.096;2023-07-29T02:46:43;18.00;42.80
1381;DHT22;684;48.342;10.096;2023-07-29T02:49:11;17.90;42.70
1381;DHT22;684;48.342;10.096;2023-07-29T02:51:38;17.90;42.60
1381;DHT22;684;48.342;10.096;2023-07-29T02:54:04;17.90;42.60
1381;DHT22;684;48.342;10.096;2023-07-29T02:56:31;17.80;42.50
1381;DHT22;684;48.342;10.096;2023-07-29T02:58:58;17.80;42.30
1381;DHT22;684;48.342;10.096;2023-07-29T03:01:25;17.80;42.40
1381;DHT22;684;48.342;10.096;2023-07-29T03:03:52;17.70;42.40
1381;DHT22;684;48.342;10.096;2023-07-29T03:06:20;17.70;42.30
1381;DHT22;684;48.342;10.096;2023-07-29T03:08:47;17.70;42.40
1381;DHT22;684;48.342;10.096;2023-07-29T03:11:15;17.70;42.40
1381;DHT22;684;48.342;10.096;2023-07-29T03:13:42;17.70;42.30
1381;DHT22;684;48.342;10.096;2023-07-29T03:16:11;17.60;42.30
1381;DHT22;684;48.342;10.096;2023-07-29T03:18:38;17.60;42.50
1381;DHT22;684;48.342;10.096;2023-07-29T03:21:05;17.50;42.50
1381;DHT22;684;48.342;10.096;2023-07-29T03:23:34;17.50;42.50
1381;DHT22;684;48.342;10.096;2023-07-29T03:26:02;17.50;42.50
1381;DHT22;684;48.342;10.096;2023-07-29T03:28:36;17.40;42.30
1381;DHT22;684;48.342;10.096;2023-07-29T03:31:03;17.40;42.20
1381;DHT22;684;48.342;10.096;2023-07-29T03:33:30;17.40;42.30
1381;DHT22;684;48.342;10.096;2023-07-29T03:35:57;17.40;42.30
1381;DHT22;684;48.342;10.096;2023-07-29T03:38:24;17.40;42.40
1381;DHT22;684;48.342;10.096;2023-07-29T03:40:52;17.40;42.50
1381;DHT22;684;48.342;10.096;2023-07-29T03:43:19;17.40;42.70
1381;DHT22;684;48.342;10.096;2023-07-29T03:45:46;17.50;42.70
1381;DHT22;684;48.342;10.096;2023-07-29T03:48:12;17.50;42.40
1381;DHT22;684;48.342;10.096;2023-07-29T03:50:39;17.50;42.50
1381;DHT22;684;48.342;10.096;2023-07-29T03:53:06;17.50;42.60
1381;DHT22;684;48.342;10.096;2023-07-29T03:55:33;17.50;42.40
1381;DHT22;684;48.342;10.096;2023-07-29T03:58:01;17.50;42.40
1381;DHT22;684;48.342;10.096;2023-07-29T04:00:28;17.60;42.60
1381;DHT22;684;48.342;10.096;2023-07-29T04:02:54;17.60;42.40
1381;DHT22;684;48.342;10.096;2023-07-29T04:05:21;17.60;42.40
1381;DHT22;684;48.342;10.096;2023-07-29T04:07:48;17.60;42.40
1381;DHT22;684;48.342;10.096;2023-07-29T04:10:15;17.60;42.40
1381;DHT22;684;48.342;10.096;2023-07-29T04:12:42;17.70;42.50
1381;DHT22;684;48.342;10.096;2023-07-29T04:15:10;17.70;42.60
1381;DHT22;684;48.342;10.096;2023-07-29T04:17:37;17.70;42.30
1381;DHT22;684;48.342;10.096;2023-07-29T04:20:04;17.70;42.20
1381;DHT22;684;48.342;10.096;2023-07-29T04:22:31;17.80;42.10
1381;DHT22;684;48.342;10.096;2023-07-29T04:24:58;17.90;41.90
1381;DHT22;684;48.342;10.096;2023-07-29T04:27:25;17.90;41.70
1381;DHT22;684;48.342;10.096;2023-07-29T04:29:51;18.00;41.40
1381;DHT22;684;48.342;10.096;2023-07-29T04:32:19;18.00;41.60
1381;DHT22;684;48.342;10.096;2023-07-29T04:34:46;18.00;41.70
1381;DHT22;684;48.342;10.096;2023-07-29T04:37:13;18.00;41.70
1381;DHT22;684;48.342;10.096;2023-07-29T04:39:40;18.00;41.30
1381;DHT22;684;48.342;10.096;2023-07-29T04:42:06;18.10;41.20
1381;DHT22;684;48.342;10.096;2023-07-29T04:44:33;18.10;41.00
1381;DHT22;684;48.342;10.096;2023-07-29T04:47:00;18.10;41.10
1381;DHT22;684;48.342;10.096;2023-07-29T04:49:28;18.10;40.90
1381;DHT22;684;48.342;10.096;2023-07-29T04:51:54;18.20;41.00
1381;DHT22;684;48.342;10.096;2023-07-29T04:54:21;18.20;40.80
1381;DHT22;684;48.342;10.096;2023-07-29T04:56:48;18.20;41.10
1381;DHT22;684;48.342;10.096;2023-07-29T04:59:13;18.30;41.00
1381;DHT22;684;48.342;10.096;2023-07-29T05:01:40;18.30;41.10
1381;DHT22;684;48.342;10.096;2023-07-29T05:04:08;18.30;40.60
1381;DHT22;684;48.342;10.096;2023-07-29T05:06:36;18.40;40.80
1381;DHT22;684;48.342;10.096;2023-07-29T05:09:13;18.40;40.70
1381;DHT22;684;48.342;10.096;2023-07-29T05:11:39;18.50;41.00
1381;DHT22;684;48.342;10.096;2023-07-29T05:14:06;18.80;41.40
1381;DHT22;684;48.342;10.096;2023-07-29T05:16:34;19.30;40.30
1381;DHT22;684;48.342;10.096;2023-07-29T05:19:01;19.60;38.80
1381;DHT22;684;48.342;10.096;2023-07-29T05:21:28;19.60;38.50
1381;DHT22;684;48.342;10.096;2023-07-29T05:23:56;19.60;38.10
1381;DHT22;684;48.342;10.096;2023-07-29T05:26:23;19.70;38.50
1381;DHT22;684;48.342;10.096;2023-07-29T05:28:49;20.10;38.90
1381;DHT22;684;48.342;10.096;2023-07-29T05:31:16;21.10;37.00
1381;DHT22;684;48.342;10.096;2023-07-29T05:33:43;21.50;34.60
1381;DHT22;684;48.342;10.096;2023-07-29T05:36:10;21.50;33.80
1381;DHT22;684;48.342;10.096;2023-07-29T05:38:36;21.30;33.40
1381;DHT22;684;48.342;10.096;2023-07-29T05:41:04;21.20;33.30
1381;DHT22;684;48.342;10.096;2023-07-29T05:43:31;21.30;32.80
1381;DHT22;684;48.342;10.096;2023-07-29T05:45:58;21.20;32.20
1381;DHT22;684;48.342;10.096;2023-07-29T05:48:24;20.90;32.70
1381;DHT22;684;48.342;10.096;2023-07-29T05:50:51;20.70;32.80
1381;DHT22;684;48.342;10.096;2023-07-29T05:53:18;20.50;33.50
1381;DHT22;684;48.342;10.096;2023-07-29T05:55:44;20.40;34.10
1381;DHT22;684;48.342;10.096;2023-07-29T05:58:12;20.20;34.80
1381;DHT22;684;48.342;10.096;2023-07-29T06:00:39;20.10;35.40
1381;DHT22;684;48.342;10.096;2023-07-29T06:03:06;20.00;35.90
1381;DHT22;684;48.342;10.096;2023-07-29T06:05:32;19.90;36.30
1381;DHT22;684;48.342;10.096;2023-07-29T06:07:59;20.00;36.40
1381;DHT22;684;48.342;10.096;2023-07-29T06:10:26;20.00;36.60
1381;DHT22;684;48.342;10.096;2023-07-29T06:12:52;20.10;36.60
1381;DHT22;684;48.342;10.096;2023-07-29T06:15:20;20.60;36.60
1381;DHT22;684;48.342;10.096;2023-07-29T06:17:48;20.80;35.60
1381;DHT22;684;48.342;10.096;2023-07-29T06:20:15;21.90;35.60
1381;DHT22;684;48.342;10.096;2023-07-29T06:22:42;23.90;30.60
1381;DHT22;684;48.342;10.096;2023-07-29T06:25:09;24.70;24.00
1381;DHT22;684;48.342;10.096;2023-07-29T06:27:35;26.40;19.10
1381;DHT22;684;48.342;10.096;2023-07-29T06:30:02;26.20;17.90
1381;DHT22;684;48.342;10.096;2023-07-29T06:32:31;25.50;18.20
1381;DHT22;684;48.342;10.096;2023-07-29T06:34:58;25.00;19.40
1381;DHT22;684;48.342;10.096;2023-07-29T06:37:24;25.10;19.90
1381;DHT22;684;48.342;10.096;2023-07-29T06:39:51;26.60;18.70
1381;DHT22;684;48.342;10.096;2023-07-29T06:42:18;27.50;15.70
1381;DHT22;684;48.342;10.096;2023-07-29T06:44:44;27.40;14.20
1381;DHT22;684;48.342;10.096;2023-07-29T06:47:12;27.30;13.80
1381;DHT22;684;48.342;10.096;2023-07-29T06:49:40;27.10;13.70
1381;DHT22;684;48.342;10.096;2023-07-29T06:52:07;27.00;14.30
1381;DHT22;684;48.342;10.096;2023-07-29T06:54:34;26.90;14.10
1381;DHT22;684;48.342;10.096;2023-07-29T06:57:00;27.20;14.40
1381;DHT22;684;48.342;10.096;2023-07-29T06:59:27;27.60;13.00
1381;DHT22;684;48.342;10.096;2023-07-29T07:01:54;27.90;12.30
1381;DHT22;684;48.342;10.096;2023-07-29T07:04:20;27.80;11.70
1381;DHT22;684;48.342;10.096;2023-07-29T07:06:48;27.50;12.30
1381;DHT22;684;48.342;10.096;2023-07-29T07:09:15;27.30;13.10
1381;DHT22;684;48.342;10.096;2023-07-29T07:11:42;27.50;13.60
1381;DHT22;684;48.342;10.096;2023-07-29T07:14:08;28.50;12.00
1381;DHT22;684;48.342;10.096;2023-07-29T07:16:35;28.60;10.70
1381;DHT22;684;48.342;10.096;2023-07-29T07:19:04;28.70;10.60
1381;DHT22;684;48.342;10.096;2023-07-29T07:21:31;29.70;9.10
1381;DHT22;684;48.342;10.096;2023-07-29T07:23:59;30.00;8.00
1381;DHT22;684;48.342;10.096;2023-07-29T07:26:26;30.20;7.70
1381;DHT22;684;48.342;10.096;2023-07-29T07:28:53;30.60;7.80
1381;DHT22;684;48.342;10.096;2023-07-29T07:31:20;31.00;6.80
1381;DHT22;684;48.342;10.096;2023-07-29T07:33:47;31.70;4.60
1381;DHT22;684;48.342;10.096;2023-07-29T07:36:13;31.40;4.90
1381;DHT22;684;48.342;10.096;2023-07-29T07:38:41;31.40;5.40
1381;DHT22;684;48.342;10.096;2023-07-29T07:41:09;32.70;3.80
1381;DHT22;684;48.342;10.096;2023-07-29T07:43:35;33.50;2.20
1381;DHT22;684;48.342;10.096;2023-07-29T07:46:03;35.60;1.00
1381;DHT22;684;48.342;10.096;2023-07-29T07:48:30;37.50;1.00
1381;DHT22;684;48.342;10.096;2023-07-29T07:50:58;38.40;1.00
1381;DHT22;684;48.342;10.096;2023-07-29T07:53:25;38.10;1.00
1381;DHT22;684;48.342;10.096;2023-07-29T07:55:52;38.60;1.00
1381;DHT22;684;48.342;10.096;2023-07-29T07:58:20;39.50;1.00
1381;DHT22;684;48.342;10.096;2023-07-29T08:00:46;39.00;1.00
1381;DHT22;684;48.342;10.096;2023-07-29T08:03:13;40.70;1.00
1381;DHT22;684;48.342;10.096;2023-07-29T08:05:40;42.70;1.00
1381;DHT22;684;48.342;10.096;2023-07-29T08:08:06;43.90;1.00
1381;DHT22;684;48.342;10.096;2023-07-29T08:10:33;43.80;1.00
1381;DHT22;684;48.342;10.096;2023-07-29T08:13:00;44.10;1.00
1381;DHT22;684;48.342;10.096;2023-07-29T08:15:28;43.60;1.00
1381;DHT22;684;48.342;10.096;2023-07-29T08:17:54;41.80;1.00
1381;DHT22;684;48.342;10.096;2023-07-29T08:20:21;40.40;1.00
1381;DHT22;684;48.342;10.096;2023-07-29T08:22:48;40.70;1.00
1381;DHT22;684;48.342;10.096;2023-07-29T08:25:15;41.70;1.00
1381;DHT22;684;48.342;10.096;2023-07-29T08:27:41;42.50;1.00
1381;DHT22;684;48.342;10.096;2023-07-29T08:30:08;41.40;1.00
1381;DHT22;684;48.342;10.096;2023-07-29T08:32:37;39.70;1.00
1381;DHT22;684;48.342;10.096;2023-07-29T08:35:04;38.30;1.00
1381;DHT22;684;48.342;10.096;2023-07-29T08:37:31;37.30;1.00
1381;DHT22;684;48.342;10.096;2023-07-29T08:39:57;35.90;1.00
1381;DHT22;684;48.342;10.096;2023-07-29T08:42:28;34.40;1.00
1381;DHT22;684;48.342;10.096;2023-07-29T08:44:56;33.10;1.00
1381;DHT22;684;48.342;10.096;2023-07-29T08:47:27;32.00;1.80
1381;DHT22;684;48.342;10.096;2023-07-29T08:49:56;31.20;3.00
1381;DHT22;684;48.342;10.096;2023-07-29T08:52:23;30.40;4.40
1381;DHT22;684;48.342;10.096;2023-07-29T08:54:51;29.90;6.30
1381;DHT22;684;48.342;10.096;2023-07-29T08:57:20;29.30;6.60
1381;DHT22;684;48.342;10.096;2023-07-29T08:59:47;28.80;7.10
1381;DHT22;684;48.342;10.096;2023-07-29T09:02:14;28.20;8.50
1381;DHT22;684;48.342;10.096;2023-07-29T09:04:40;27.60;10.20
1381;DHT22;684;48.342;10.096;2023-07-29T09:07:09;27.10;11.80
1381;DHT22;684;48.342;10.096;2023-07-29T09:09:36;26.70;13.10
1381;DHT22;684;48.342;10.096;2023-07-29T09:12:03;26.30;14.90
1381;DHT22;684;48.342;10.096;2023-07-29T09:14:30;26.00;15.90
1381;DHT22;684;48.342;10.096;2023-07-29T09:16:57;25.80;16.90
1381;DHT22;684;48.342;10.096;2023-07-29T09:19:25;25.80;17.30
1381;DHT22;684;48.342;10.096;2023-07-29T09:21:52;25.60;17.90
1381;DHT22;684;48.342;10.096;2023-07-29T09:24:21;25.40;18.10
1381;DHT22;684;48.342;10.096;2023-07-29T09:26:51;25.10;18.40
1381;DHT22;684;48.342;10.096;2023-07-29T09:29:22;24.80;18.80
1381;DHT22;684;48.342;10.096;2023-07-29T09:31:49;24.60;19.90
1381;DHT22;684;48.342;10.096;2023-07-29T09:34:16;24.30;20.60
1381;DHT22;684;48.342;10.096;2023-07-29T09:36:43;24.20;21.30
1381;DHT22;684;48.342;10.096;2023-07-29T09:39:11;24.30;22.40
1381;DHT22;684;48.342;10.096;2023-07-29T09:41:40;24.40;22.90
1381;DHT22;684;48.342;10.096;2023-07-29T09:44:07;24.80;23.60
1381;DHT22;684;48.342;10.096;2023-07-29T09:46:35;26.10;20.30
1381;DHT22;684;48.342;10.096;2023-07-29T09:49:02;26.90;18.30
1381;DHT22;684;48.342;10.096;2023-07-29T09:51:29;27.20;17.20
1381;DHT22;684;48.342;10.096;2023-07-29T09:53:56;27.20;15.60
1381;DHT22;684;48.342;10.096;2023-07-29T09:56:25;27.00;15.40
1381;DHT22;684;48.342;10.096;2023-07-29T09:58:55;27.20;15.10
1381;DHT22;684;48.342;10.096;2023-07-29T10:01:24;27.30;14.00
1381;DHT22;684;48.342;10.096;2023-07-29T10:03:51;27.10;13.90
1381;DHT22;684;48.342;10.096;2023-07-29T10:06:18;27.60;14.60
1381;DHT22;684;48.342;10.096;2023-07-29T10:08:45;28.40;12.90
1381;DHT22;684;48.342;10.096;2023-07-29T10:11:14;29.20;11.70
1381;DHT22;684;48.342;10.096;2023-07-29T10:13:40;29.70;9.60
1381;DHT22;684;48.342;10.096;2023-07-29T10:16:09;30.00;9.80
1381;DHT22;684;48.342;10.096;2023-07-29T10:18:36;30.00;8.50
1381;DHT22;684;48.342;10.096;2023-07-29T10:21:04;29.80;6.70
1381;DHT22;684;48.342;10.096;2023-07-29T10:23:36;29.70;8.70
1381;DHT22;684;48.342;10.096;2023-07-29T10:26:10;29.50;9.10
1381;DHT22;684;48.342;10.096;2023-07-29T10:28:40;29.30;9.00
1381;DHT22;684;48.342;10.096;2023-07-29T10:31:08;29.20;8.60
1381;DHT22;684;48.342;10.096;2023-07-29T10:33:36;29.10;9.30
1381;DHT22;684;48.342;10.096;2023-07-29T10:36:04;29.10;9.80
1381;DHT22;684;48.342;10.096;2023-07-29T10:38:31;29.10;9.10
1381;DHT22;684;48.342;10.096;2023-07-29T10:40:59;29.20;9.20
1381;DHT22;684;48.342;10.096;2023-07-29T10:43:29;29.20;8.40
1381;DHT22;684;48.342;10.096;2023-07-29T10:45:58;29.00;7.70
1381;DHT22;684;48.342;10.096;2023-07-29T10:48:42;28.60;7.10
1381;DHT22;684;48.342;10.096;2023-07-29T10:51:26;28.10;8.10
1381;DHT22;684;48.342;10.096;2023-07-29T10:53:56;27.70;8.90
1381;DHT22;684;48.342;10.096;2023-07-29T10:56:30;27.40;10.50
1381;DHT22;684;48.342;10.096;2023-07-29T10:59:22;27.00;12.10
1381;DHT22;684;48.342;10.096;2023-07-29T11:01:51;26.60;12.40
1381;DHT22;684;48.342;10.096;2023-07-29T11:04:26;26.30;12.80
1381;DHT22;684;48.342;10.096;2023-07-29T11:07:22;26.00;13.90
1381;DHT22;684;48.342;10.096;2023-07-29T11:09:54;26.00;15.00
1381;DHT22;684;48.342;10.096;2023-07-29T11:12:40;26.20;15.90
1381;DHT22;684;48.342;10.096;2023-07-29T11:15:19;26.40;16.90
1381;DHT22;684;48.342;10.096;2023-07-29T11:17:47;26.60;17.40
1381;DHT22;684;48.342;10.096;2023-07-29T11:20:16;26.90;17.60
1381;DHT22;684;48.342;10.096;2023-07-29T11:22:43;27.00;17.70
1381;DHT22;684;48.342;10.096;2023-07-29T11:25:11;27.10;16.80
1381;DHT22;684;48.342;10.096;2023-07-29T11:27:39;27.10;16.80
1381;DHT22;684;48.342;10.096;2023-07-29T11:30:07;27.00;16.60
1381;DHT22;684;48.342;10.096;2023-07-29T11:32:35;26.90;16.00
1381;DHT22;684;48.342;10.096;2023-07-29T11:35:03;26.90;15.40
1381;DHT22;684;48.342;10.096;2023-07-29T11:37:32;26.90;15.30
1381;DHT22;684;48.342;10.096;2023-07-29T11:39:59;27.00;16.70
1381;DHT22;684;48.342;10.096;2023-07-29T11:42:27;27.10;14.10
1381;DHT22;684;48.342;10.096;2023-07-29T11:44:56;27.20;14.70
1381;DHT22;684;48.342;10.096;2023-07-29T11:47:23;27.30;14.20
1381;DHT22;684;48.342;10.096;2023-07-29T11:49:51;27.30;13.30
1381;DHT22;684;48.342;10.096;2023-07-29T11:52:18;27.20;13.00
1381;DHT22;684;48.342;10.096;2023-07-29T11:54:48;27.10;12.70
1381;DHT22;684;48.342;10.096;2023-07-29T11:57:16;27.20;13.80
1381;DHT22;684;48.342;10.096;2023-07-29T11:59:43;27.20;13.30
1381;DHT22;684;48.342;10.096;2023-07-29T12:02:13;27.20;12.60
1381;DHT22;684;48.342;10.096;2023-07-29T12:04:41;27.10;12.80
1381;DHT22;684;48.342;10.096;2023-07-29T12:07:09;27.00;12.80
1381;DHT22;684;48.342;10.096;2023-07-29T12:09:36;26.90;11.80
1381;DHT22;684;48.342;10.096;2023-07-29T12:12:06;27.00;12.80
1381;DHT22;684;48.342;10.096;2023-07-29T12:14:33;27.10;12.80
1381;DHT22;684;48.342;10.096;2023-07-29T12:17:00;27.20;13.50
1381;DHT22;684;48.342;10.096;2023-07-29T12:19:32;27.30;12.50
1381;DHT22;684;48.342;10.096;2023-07-29T12:21:59;27.20;12.50
1381;DHT22;684;48.342;10.096;2023-07-29T12:24:26;27.30;13.30
1381;DHT22;684;48.342;10.096;2023-07-29T12:26:53;27.40;12.80
1381;DHT22;684;48.342;10.096;2023-07-29T12:29:21;27.50;12.10
1381;DHT22;684;48.342;10.096;2023-07-29T12:31:48;27.60;12.30
1381;DHT22;684;48.342;10.096;2023-07-29T12:34:19;27.80;11.20
1381;DHT22;684;48.342;10.096;2023-07-29T12:36:47;27.90;11.10
1381;DHT22;684;48.342;10.096;2023-07-29T12:39:21;28.10;12.30
1381;DHT22;684;48.342;10.096;2023-07-29T12:41:50;28.10;10.70
1381;DHT22;684;48.342;10.096;2023-07-29T12:44:17;28.00;10.10
1381;DHT22;684;48.342;10.096;2023-07-29T12:46:45;28.00;9.90
1381;DHT22;684;48.342;10.096;2023-07-29T12:49:12;28.10;10.60
1381;DHT22;684;48.342;10.096;2023-07-29T12:51:38;28.20;9.80
1381;DHT22;684;48.342;10.096;2023-07-29T12:54:05;28.20;7.40
1381;DHT22;684;48.342;10.096;2023-07-29T12:56:32;28.10;7.80
1381;DHT22;684;48.342;10.096;2023-07-29T12:59:00;28.00;7.50
1381;DHT22;684;48.342;10.096;2023-07-29T13:01:27;27.80;6.20
1381;DHT22;684;48.342;10.096;2023-07-29T13:03:56;27.70;6.30
1381;DHT22;684;48.342;10.096;2023-07-29T13:06:23;27.60;5.50
1381;DHT22;684;48.342;10.096;2023-07-29T13:08:49;27.60;6.00
1381;DHT22;684;48.342;10.096;2023-07-29T13:11:17;27.60;5.10
1381;DHT22;684;48.342;10.096;2023-07-29T13:13:43;27.60;6.10
1381;DHT22;684;48.342;10.096;2023-07-29T13:16:11;27.60;6.10
1381;DHT22;684;48.342;10.096;2023-07-29T13:18:37;27.60;7.70
1381;DHT22;684;48.342;10.096;2023-07-29T13:21:06;27.60;6.70
1381;DHT22;684;48.342;10.096;2023-07-29T13:23:33;27.60;6.70
1381;DHT22;684;48.342;10.096;2023-07-29T13:25:59;27.60;6.00
1381;DHT22;684;48.342;10.096;2023-07-29T13:28:26;27.60;6.30
1381;DHT22;684;48.342;10.096;2023-07-29T13:30:53;27.60;6.40
1381;DHT22;684;48.342;10.096;2023-07-29T13:33:20;27.60;6.20
1381;DHT22;684;48.342;10.096;2023-07-29T13:35:46;27.60;6.20
1381;DHT22;684;48.342;10.096;2023-07-29T13:38:14;27.70;7.00
1381;DHT22;684;48.342;10.096;2023-07-29T13:40:41;27.80;6.80
1381;DHT22;684;48.342;10.096;2023-07-29T13:43:08;27.70;6.70
1381;DHT22;684;48.342;10.096;2023-07-29T13:45:35;27.80;6.60
1381;DHT22;684;48.342;10.096;2023-07-29T13:48:02;27.70;6.60
1381;DHT22;684;48.342;10.096;2023-07-29T13:50:28;27.70;6.50
1381;DHT22;684;48.342;10.096;2023-07-29T13:52:55;27.70;6.30
1381;DHT22;684;48.342;10.096;2023-07-29T13:55:23;27.70;6.30
1381;DHT22;684;48.342;10.096;2023-07-29T13:57:50;27.70;6.80
1381;DHT22;684;48.342;10.096;2023-07-29T14:00:17;27.70;6.00
1381;DHT22;684;48.342;10.096;2023-07-29T14:02:43;27.60;6.20
1381;DHT22;684;48.342;10.096;2023-07-29T14:05:10;27.60;6.30
1381;DHT22;684;48.342;10.096;2023-07-29T14:07:37;27.60;6.50
1381;DHT22;684;48.342;10.096;2023-07-29T14:10:04;27.60;6.50
1381;DHT22;684;48.342;10.096;2023-07-29T14:12:33;27.60;7.10
1381;DHT22;684;48.342;10.096;2023-07-29T14:15:00;27.60;7.20
1381;DHT22;684;48.342;10.096;2023-07-29T14:17:26;27.50;7.40
1381;DHT22;684;48.342;10.096;2023-07-29T14:19:53;27.50;7.40
1381;DHT22;684;48.342;10.096;2023-07-29T14:22:20;27.50;7.10
1381;DHT22;684;48.342;10.096;2023-07-29T14:24:46;27.50;7.40
1381;DHT22;684;48.342;10.096;2023-07-29T14:27:13;27.50;7.80
1381;DHT22;684;48.342;10.096;2023-07-29T14:29:43;27.50;7.60
1381;DHT22;684;48.342;10.096;2023-07-29T14:32:09;27.50;7.80
1381;DHT22;684;48.342;10.096;2023-07-29T14:34:36;27.50;7.30
1381;DHT22;684;48.342;10.096;2023-07-29T14:37:04;27.50;7.60
1381;DHT22;684;48.342;10.096;2023-07-29T14:39:31;27.50;8.70
1381;DHT22;684;48.342;10.096;2023-07-29T14:41:58;27.40;7.60
1381;DHT22;684;48.342;10.096;2023-07-29T14:44:25;27.40;7.50
1381;DHT22;684;48.342;10.096;2023-07-29T14:46:53;27.50;7.40
1381;DHT22;684;48.342;10.096;2023-07-29T14:49:20;27.40;7.70
1381;DHT22;684;48.342;10.096;2023-07-29T14:51:47;27.40;7.00
1381;DHT22;684;48.342;10.096;2023-07-29T14:54:14;27.40;7.80
1381;DHT22;684;48.342;10.096;2023-07-29T14:56:41;27.40;7.60
1381;DHT22;684;48.342;10.096;2023-07-29T14:59:07;27.40;6.20
1381;DHT22;684;48.342;10.096;2023-07-29T15:01:34;27.40;6.30
1381;DHT22;684;48.342;10.096;2023-07-29T15:04:02;27.30;6.10
1381;DHT22;684;48.342;10.096;2023-07-29T15:06:29;27.30;6.80
1381;DHT22;684;48.342;10.096;2023-07-29T15:08:56;27.20;6.50
1381;DHT22;684;48.342;10.096;2023-07-29T15:11:22;27.20;7.10
1381;DHT22;684;48.342;10.096;2023-07-29T15:13:49;27.20;7.60
1381;DHT22;684;48.342;10.096;2023-07-29T15:16:16;27.20;7.60
1381;DHT22;684;48.342;10.096;2023-07-29T15:18:43;27.20;7.40
1381;DHT22;684;48.342;10.096;2023-07-29T15:21:11;27.30;7.20
1381;DHT22;684;48.342;10.096;2023-07-29T15:23:37;27.30;6.80
1381;DHT22;684;48.342;10.096;2023-07-29T15:26:04;27.20;7.70
1381;DHT22;684;48.342;10.096;2023-07-29T15:28:31;27.20;8.00
1381;DHT22;684;48.342;10.096;2023-07-29T15:30:57;27.00;7.20
1381;DHT22;684;48.342;10.096;2023-07-29T15:33:24;26.90;7.30
1381;DHT22;684;48.342;10.096;2023-07-29T15:35:51;26.80;8.20
1381;DHT22;684;48.342;10.096;2023-07-29T15:38:19;26.60;8.80
1381;DHT22;684;48.342;10.096;2023-07-29T15:40:46;26.50;9.00
1381;DHT22;684;48.342;10.096;2023-07-29T15:43:14;26.30;8.40
1381;DHT22;684;48.342;10.096;2023-07-29T15:45:41;26.10;11.30
1381;DHT22;684;48.342;10.096;2023-07-29T15:48:08;25.90;13.70
1381;DHT22;684;48.342;10.096;2023-07-29T15:50:35;25.60;14.50
1381;DHT22;684;48.342;10.096;2023-07-29T15:53:01;25.20;15.60
1381;DHT22;684;48.342;10.096;2023-07-29T15:55:30;25.00;16.80
1381;DHT22;684;48.342;10.096;2023-07-29T15:57:56;24.90;17.70
1381;DHT22;684;48.342;10.096;2023-07-29T16:00:23;24.70;15.30
1381;DHT22;684;48.342;10.096;2023-07-29T16:02:50;24.40;15.30
1381;DHT22;684;48.342;10.096;2023-07-29T16:05:17;24.20;16.10
1381;DHT22;684;48.342;10.096;2023-07-29T16:07:44;24.00;15.90
1381;DHT22;684;48.342;10.096;2023-07-29T16:10:10;23.70;16.70